createdAt,value
2023-01-01T00:04:13.067Z,14.68
2023-01-01T00:09:28.309Z,14.75
2023-01-01T00:14:26.267Z,14.57
2023-01-01T00:19:23.334Z,16.00
2023-01-01T00:24:20.213Z,15.27
2023-01-01T00:29:17.239Z,14.60
2023-01-01T00:34:15.019Z,12.27
2023-01-01T00:39:11.887Z,11.60
2023-01-01T00:44:08.954Z,11.40
2023-01-01T00:49:05.769Z,12.10
2023-01-01T00:54:03.551Z,12.70
2023-01-01T00:59:01.013Z,12.18
2023-01-01T01:03:58.933Z,11.60
2023-01-01T01:08:55.817Z,13.45
2023-01-01T01:13:57.437Z,11.68
2023-01-01T01:18:59.900Z,15.07
2023-01-01T01:23:59.188Z,13.02
2023-01-01T01:28:57.252Z,11.27
2023-01-01T01:33:54.295Z,12.90
2023-01-01T01:38:51.109Z,12.43
2023-01-01T01:43:52.960Z,13.57
2023-01-01T01:48:52.039Z,11.73
2023-01-01T01:53:54.304Z,14.10
2023-01-01T01:58:51.272Z,12.82
2023-01-01T02:03:58.502Z,11.90
2023-01-01T02:08:57.512Z,11.95
2023-01-01T02:13:56.251Z,14.38
2023-01-01T02:18:59.859Z,14.88
2023-01-01T02:24:21.014Z,13.80
2023-01-01T02:29:29.979Z,13.77
2023-01-01T02:34:31.389Z,15.02
2023-01-01T02:39:32.015Z,13.13
2023-01-01T02:44:35.616Z,14.00
2023-01-01T02:49:32.983Z,12.48
2023-01-01T02:54:37.751Z,12.15
2023-01-01T03:00:02.751Z,10.40
2023-01-01T03:05:08.139Z,13.05
2023-01-01T03:10:14.596Z,12.88
2023-01-01T03:15:21.582Z,12.40
2023-01-01T03:20:24.390Z,12.18
2023-01-01T03:25:25.561Z,13.65
2023-01-01T03:30:24.451Z,11.80
2023-01-01T03:35:24.961Z,11.10
2023-01-01T03:40:22.924Z,11.70
2023-01-01T03:45:25.523Z,11.55
2023-01-01T03:50:28.601Z,12.65
2023-01-01T03:55:32.892Z,13.07
2023-01-01T04:00:34.975Z,12.13
2023-01-01T04:05:35.552Z,12.77
2023-01-01T04:10:35.860Z,12.00
2023-01-01T04:15:35.377Z,11.43
2023-01-01T04:20:32.647Z,11.23
2023-01-01T04:25:29.704Z,10.27
2023-01-01T04:30:27.638Z,10.25
2023-01-01T04:35:25.317Z,11.45
2023-01-01T04:40:22.170Z,10.05
2023-01-01T04:45:18.998Z,10.40
2023-01-01T04:50:16.010Z,10.77
2023-01-01T04:55:13.768Z,10.30
2023-01-01T05:00:11.256Z,9.52
2023-01-01T05:05:08.840Z,9.50
2023-01-01T05:10:06.704Z,9.90
2023-01-01T05:15:05.119Z,9.10
2023-01-01T05:20:03.295Z,9.23
2023-01-01T05:25:00.168Z,9.20
2023-01-01T05:29:58.025Z,8.30
2023-01-01T05:34:56.219Z,9.55
2023-01-01T05:39:53.117Z,7.75
2023-01-01T05:44:50.035Z,6.38
2023-01-01T05:49:47.049Z,7.70
2023-01-01T05:54:44.623Z,7.78
2023-01-01T05:59:41.486Z,6.70
2023-01-01T06:04:38.378Z,7.00
2023-01-01T06:10:23.333Z,7.32
2023-01-01T06:16:30.534Z,6.97
2023-01-01T06:22:12.523Z,6.65
2023-01-01T06:28:26.841Z,7.22
2023-01-01T06:33:54.150Z,7.25
2023-01-01T06:45:00.520Z,8.05
2023-01-01T06:49:58.035Z,9.20
2023-01-01T06:56:00.051Z,8.80
2023-01-01T07:01:11.962Z,9.45
2023-01-01T07:06:09.975Z,10.45
2023-01-01T07:11:06.938Z,10.65
2023-01-01T07:16:12.110Z,10.27
2023-01-01T07:21:29.441Z,11.23
2023-01-01T07:26:29.043Z,10.35
2023-01-01T07:31:26.094Z,9.45
2023-01-01T07:36:24.014Z,9.55
2023-01-01T07:41:20.960Z,8.30
2023-01-01T07:46:19.121Z,8.10
2023-01-01T07:51:23.729Z,7.88
2023-01-01T07:56:31.248Z,7.97
2023-01-01T08:01:30.781Z,7.57
2023-01-01T08:12:24.433Z,7.43
2023-01-01T08:22:52.733Z,7.82
2023-01-01T08:27:55.479Z,7.45
2023-01-01T08:32:53.175Z,7.80
2023-01-01T08:37:56.178Z,8.20
2023-01-01T08:42:54.801Z,7.95
2023-01-01T08:47:51.857Z,7.10
2023-01-01T08:52:53.374Z,7.80
2023-01-01T08:58:14.174Z,5.75
2023-01-01T09:03:11.521Z,6.38
2023-01-01T09:08:09.296Z,6.38
2023-01-01T09:13:12.745Z,5.85
2023-01-01T09:18:14.050Z,5.82
2023-01-01T09:23:19.524Z,5.53
2023-01-01T09:28:23.364Z,5.03
2023-01-01T09:33:23.079Z,5.18
2023-01-01T09:38:21.078Z,5.85
2023-01-01T09:43:34.995Z,5.63
2023-01-01T09:48:40.698Z,6.00
2023-01-01T09:53:45.725Z,6.65
2023-01-01T09:58:44.413Z,6.00
2023-01-01T10:03:48.037Z,5.68
2023-01-01T10:09:00.636Z,7.60
2023-01-01T10:14:01.531Z,5.90
2023-01-01T10:19:06.052Z,6.13
2023-01-01T10:24:11.110Z,6.35
2023-01-01T10:29:19.779Z,5.57
2023-01-01T10:34:20.282Z,6.45
2023-01-01T10:39:19.961Z,6.22
2023-01-01T10:44:25.707Z,5.95
2023-01-01T10:49:24.395Z,6.20
2023-01-01T10:54:32.864Z,5.82
2023-01-01T10:59:37.169Z,5.70
2023-01-01T11:04:34.428Z,5.72
2023-01-01T11:09:31.950Z,5.68
2023-01-01T11:14:34.748Z,4.70
2023-01-01T11:19:37.004Z,4.95
2023-01-01T11:24:35.951Z,4.53
2023-01-01T11:29:33.370Z,4.63
2023-01-01T11:34:36.084Z,5.22
2023-01-01T11:39:36.753Z,3.95
2023-01-01T11:44:39.112Z,4.10
2023-01-01T11:49:37.393Z,3.70
2023-01-01T11:54:36.909Z,5.60
2023-01-01T12:00:10.494Z,4.85
2023-01-01T12:10:20.415Z,3.95
2023-01-01T12:15:24.551Z,4.22
2023-01-01T12:20:26.373Z,3.90
2023-01-01T12:25:23.507Z,4.15
2023-01-01T12:30:26.228Z,4.22
2023-01-01T12:35:43.787Z,4.25
2023-01-01T12:40:51.160Z,4.10
2023-01-01T12:46:20.464Z,4.38
2023-01-01T12:51:38.837Z,5.05
2023-01-01T12:56:46.150Z,4.45
2023-01-01T13:01:44.144Z,4.30
2023-01-01T13:06:50.046Z,4.25
2023-01-01T13:11:53.764Z,4.38
2023-01-01T13:16:53.205Z,4.35
2023-01-01T13:21:51.020Z,3.65
2023-01-01T13:26:51.663Z,4.40
2023-01-01T13:32:06.991Z,5.03
2023-01-01T13:37:31.991Z,6.93
2023-01-01T13:42:44.234Z,5.10
2023-01-01T13:48:12.670Z,5.05
2023-01-01T13:53:28.573Z,7.05
2023-01-01T13:59:11.711Z,7.18
2023-01-01T14:04:29.671Z,6.20
2023-01-01T14:09:31.288Z,8.25
2023-01-01T14:14:28.925Z,7.75
2023-01-01T14:19:27.565Z,8.02
2023-01-01T14:24:26.331Z,7.82
2023-01-01T14:29:27.933Z,8.13
2023-01-01T14:34:28.103Z,8.80
2023-01-01T14:39:28.000Z,8.35
2023-01-01T14:44:32.779Z,9.65
2023-01-01T14:49:34.929Z,8.98
2023-01-01T14:54:36.995Z,14.98
2023-01-01T14:59:36.237Z,12.80
2023-01-01T15:04:36.742Z,11.88
2023-01-01T15:09:37.545Z,11.80
2023-01-01T15:14:38.303Z,11.18
2023-01-01T15:19:36.946Z,13.20
2023-01-01T15:24:36.547Z,12.82
2023-01-01T15:29:35.918Z,14.43
2023-01-01T15:34:42.157Z,15.23
2023-01-01T15:39:47.002Z,15.27
2023-01-01T15:44:44.487Z,14.27
2023-01-01T15:49:43.065Z,21.23
2023-01-01T15:54:46.146Z,22.75
2023-01-01T15:59:43.753Z,24.48
2023-01-01T16:04:45.771Z,19.00
2023-01-01T16:09:43.901Z,22.00
2023-01-01T16:14:41.342Z,24.08
2023-01-01T16:19:38.405Z,23.02
2023-01-01T16:24:36.242Z,28.75
2023-01-01T16:29:33.224Z,27.75
2023-01-01T16:34:30.325Z,23.00
2023-01-01T16:39:27.159Z,26.10
2023-01-01T16:44:28.126Z,26.13
2023-01-01T16:49:25.579Z,27.77
2023-01-01T16:54:24.666Z,29.02
2023-01-01T16:59:26.605Z,23.00
2023-01-01T17:04:25.894Z,26.67
2023-01-01T17:09:23.078Z,24.80
2023-01-01T17:14:21.520Z,28.15
2023-01-01T17:19:25.421Z,27.42
2023-01-01T17:24:38.839Z,26.40
2023-01-01T17:29:45.479Z,27.17
2023-01-01T17:34:43.399Z,26.92
2023-01-01T17:39:44.068Z,25.17
2023-01-01T17:44:50.367Z,25.95
2023-01-01T17:49:50.126Z,27.42
2023-01-01T17:54:51.181Z,34.42
2023-01-01T17:59:48.369Z,50.05
2023-01-01T18:04:45.417Z,48.50
2023-01-01T18:09:44.002Z,43.00
2023-01-01T18:14:42.001Z,40.03
2023-01-01T18:19:38.850Z,46.20
2023-01-01T18:24:35.947Z,44.45
2023-01-01T18:29:33.392Z,45.70
2023-01-01T18:34:32.335Z,43.65
2023-01-01T18:39:32.745Z,42.30
2023-01-01T18:44:32.030Z,43.88
2023-01-01T18:49:30.163Z,41.80
2023-01-01T18:54:29.656Z,38.83
2023-01-01T18:59:27.277Z,37.67
2023-01-01T19:04:24.135Z,37.88
2023-01-01T19:09:22.935Z,37.33
2023-01-01T19:14:28.180Z,36.15
2023-01-01T19:19:27.802Z,34.38
2023-01-01T19:24:27.475Z,34.33
2023-01-01T19:29:29.936Z,40.88
2023-01-01T19:34:26.735Z,36.75
2023-01-01T19:39:23.698Z,32.90
2023-01-01T19:44:25.420Z,31.27
2023-01-01T19:49:25.021Z,32.38
2023-01-01T19:54:22.501Z,32.10
2023-01-01T19:59:20.310Z,43.95
2023-01-01T20:04:17.457Z,38.35
2023-01-01T20:09:16.078Z,37.10
2023-01-01T20:14:46.308Z,32.13
2023-01-01T20:19:43.774Z,29.17
2023-01-01T20:24:42.360Z,28.00
2023-01-01T20:29:50.314Z,23.67
2023-01-01T20:34:47.870Z,24.20
2023-01-01T20:39:49.691Z,23.52
2023-01-01T20:44:46.638Z,23.10
2023-01-01T20:49:43.971Z,21.92
2023-01-01T20:54:41.016Z,25.73
2023-01-01T20:59:38.886Z,23.92
2023-01-01T21:04:37.641Z,22.27
2023-01-01T21:09:34.709Z,22.83
2023-01-01T21:14:32.002Z,21.13
2023-01-01T21:19:29.531Z,20.95
2023-01-01T21:24:28.407Z,22.70
2023-01-01T21:29:27.244Z,18.00
2023-01-01T21:34:32.072Z,18.73
2023-01-01T21:39:30.871Z,17.17
2023-01-01T21:44:27.955Z,16.55
2023-01-01T21:55:47.909Z,17.02
2023-01-01T22:00:45.311Z,17.42
2023-01-01T22:05:42.326Z,17.02
2023-01-01T22:10:40.005Z,17.52
2023-01-01T22:15:39.978Z,18.48
2023-01-01T22:20:39.083Z,15.82
2023-01-01T22:25:39.697Z,14.38
2023-01-01T22:30:41.199Z,12.88
2023-01-01T22:35:38.081Z,11.63
2023-01-01T22:40:37.245Z,12.10
2023-01-01T22:45:39.423Z,14.52
2023-01-01T22:50:36.659Z,14.40
2023-01-01T22:55:33.401Z,14.50
2023-01-01T23:00:30.669Z,14.35
2023-01-01T23:05:28.587Z,16.23
2023-01-01T23:10:25.508Z,15.90
2023-01-01T23:15:40.392Z,17.17
2023-01-01T23:20:37.965Z,15.55
2023-01-01T23:25:34.778Z,15.10
2023-01-01T23:30:35.117Z,14.38
2023-01-01T23:35:32.183Z,17.52
2023-01-01T23:40:29.669Z,13.30
2023-01-01T23:45:28.850Z,15.02
2023-01-01T23:50:25.798Z,15.82
2023-01-01T23:55:22.581Z,14.60
